Mountain Center, California
Current Conditions -  °F | °C
As of 12:53 AM on Wednesday 26 Nov 2014 (Local Time) from KPSP Reporting Station
Clear Clear  
Wind Chill: 54°   Ceiling: Unl
Heat Index: 54°   Visibility: 10mi
Dew Point: 20°   Wind: 6mph
Humidity: 26%   Direction: 310°NW
Pressure: 30.3"   Gusts: NA
Location:  33.7°N, 116.73°W
Report Text: KPSP 260853Z AUTO 31005KT 10SM CLR 12/M07 A3030 RMK AO2 SLP260 T01221067 58010 TSNO
Loading
Personal Weather Stations






























Interactive Weather Map New forecast layout! Learn more

10-Day Weather Forecast

Advertisements
Track Severe Weather on mobile